createdAt,value
2023-03-31T00:00:58.212Z,99629.88
2023-03-31T00:03:26.355Z,99617.69
2023-03-31T00:05:58.375Z,99624.94
2023-03-31T00:08:30.578Z,99622.03
2023-03-31T00:11:01.038Z,99613.19
2023-03-31T00:13:28.941Z,99609.13
2023-03-31T00:16:00.356Z,99601.19
2023-03-31T00:18:28.154Z,99594.22
2023-03-31T00:21:06.842Z,99598.47
2023-03-31T00:23:34.495Z,99594.88
2023-03-31T00:26:02.192Z,99584.38
2023-03-31T00:28:29.972Z,99578.06
2023-03-31T00:31:02.001Z,99578.13
2023-03-31T00:33:30.144Z,99568.59
2023-03-31T00:36:06.104Z,99572.22
2023-03-31T00:38:34.505Z,99570.19
2023-03-31T00:41:03.120Z,99561.88
2023-03-31T00:43:33.002Z,99554.78
2023-03-31T00:46:15.657Z,99548.06
2023-03-31T00:48:48.302Z,99553.06
2023-03-31T00:51:19.016Z,99534.22
2023-03-31T00:53:48.683Z,99542.47
2023-03-31T00:56:18.317Z,99548.94
2023-03-31T00:58:47.253Z,99539.44
2023-03-31T01:01:17.795Z,99534.03
2023-03-31T01:03:46.856Z,99533.00
2023-03-31T01:06:16.859Z,99530.13
2023-03-31T01:08:44.919Z,99523.09
2023-03-31T01:11:16.405Z,99508.03
2023-03-31T01:13:45.938Z,99528.72
2023-03-31T01:16:13.750Z,99514.03
2023-03-31T01:18:46.476Z,99503.44
2023-03-31T01:22:01.353Z,99507.38
2023-03-31T01:25:10.095Z,99507.31
2023-03-31T01:27:54.100Z,99510.34
2023-03-31T01:30:38.434Z,99496.22
2023-03-31T01:33:37.230Z,99485.84
2023-03-31T01:36:36.223Z,99495.72
2023-03-31T01:39:32.169Z,99484.22
2023-03-31T01:42:04.002Z,99487.25
2023-03-31T01:44:36.336Z,99488.16
2023-03-31T01:47:09.568Z,99477.25
2023-03-31T01:49:42.084Z,99485.41
2023-03-31T01:52:16.148Z,99471.09
2023-03-31T01:54:50.703Z,99470.78
2023-03-31T01:57:21.331Z,99473.66
2023-03-31T01:59:54.138Z,99454.84
2023-03-31T02:02:27.053Z,99457.94
2023-03-31T02:04:59.067Z,99450.84
2023-03-31T02:07:30.844Z,99450.75
2023-03-31T02:10:01.963Z,99448.97
2023-03-31T02:12:33.044Z,99442.13
2023-03-31T02:15:02.227Z,99443.59
2023-03-31T02:17:32.618Z,99439.03
2023-03-31T02:20:05.635Z,99428.09
2023-03-31T02:22:36.185Z,99417.59
2023-03-31T02:25:06.317Z,99413.09
2023-03-31T02:27:37.496Z,99402.81
2023-03-31T02:30:06.784Z,99406.59
2023-03-31T02:32:37.708Z,99394.00
2023-03-31T02:35:07.060Z,99393.88
2023-03-31T02:37:35.226Z,99394.19
2023-03-31T02:40:08.966Z,99384.53
2023-03-31T02:42:38.222Z,99376.44
2023-03-31T02:45:08.539Z,99363.47
2023-03-31T02:47:36.251Z,99360.69
2023-03-31T02:50:05.737Z,99359.03
2023-03-31T02:52:41.701Z,99355.69
2023-03-31T02:55:28.114Z,99362.06
2023-03-31T02:58:26.773Z,99350.94
2023-03-31T03:01:16.751Z,99343.66
2023-03-31T03:03:55.771Z,99322.44
2023-03-31T03:06:37.550Z,99324.13
2023-03-31T03:09:14.851Z,99325.00
2023-03-31T03:11:47.623Z,99315.94
2023-03-31T03:14:22.643Z,99317.16
2023-03-31T03:16:55.931Z,99309.22
2023-03-31T03:19:24.160Z,99298.28
2023-03-31T03:21:51.795Z,99305.19
2023-03-31T03:24:19.710Z,99294.03
2023-03-31T03:26:48.039Z,99286.22
2023-03-31T03:29:15.690Z,99279.53
2023-03-31T03:31:43.382Z,99264.53
2023-03-31T03:34:12.607Z,99265.94
2023-03-31T03:36:40.649Z,99252.28
2023-03-31T03:39:09.006Z,99250.19
2023-03-31T03:41:36.740Z,99245.88
2023-03-31T03:44:04.715Z,99242.13
2023-03-31T03:46:32.845Z,99239.19
2023-03-31T03:49:00.927Z,99226.50
2023-03-31T03:51:29.938Z,99222.19
2023-03-31T03:53:57.678Z,99216.06
2023-03-31T03:56:26.370Z,99211.59
2023-03-31T03:58:54.083Z,99203.81
2023-03-31T04:01:22.596Z,99199.00
2023-03-31T04:03:50.539Z,99202.53
2023-03-31T04:06:18.441Z,99196.00
2023-03-31T04:08:47.513Z,99199.91
2023-03-31T04:11:18.963Z,99204.06
2023-03-31T04:13:47.593Z,99192.94
2023-03-31T04:16:16.839Z,99186.22
2023-03-31T04:18:46.096Z,99198.78
2023-03-31T04:21:15.525Z,99193.06
2023-03-31T04:23:46.754Z,99185.69
2023-03-31T04:26:18.088Z,99180.66
2023-03-31T04:28:50.599Z,99178.97
2023-03-31T04:31:25.387Z,99165.31
2023-03-31T04:33:53.541Z,99155.59
2023-03-31T04:36:21.461Z,99147.47
2023-03-31T04:38:50.725Z,99139.44
2023-03-31T04:41:19.910Z,99140.53
2023-03-31T04:43:47.619Z,99132.75
2023-03-31T04:46:15.470Z,99127.72
2023-03-31T04:48:43.359Z,99125.50
2023-03-31T04:51:11.063Z,99126.06
2023-03-31T04:53:38.698Z,99115.06
2023-03-31T04:56:07.949Z,99120.47
2023-03-31T04:58:37.329Z,99106.25
2023-03-31T05:01:07.452Z,99093.16
2023-03-31T05:03:35.535Z,99093.75
2023-03-31T05:06:03.460Z,99097.38
2023-03-31T05:08:31.391Z,99090.81
2023-03-31T05:10:59.108Z,99079.28
2023-03-31T05:13:26.758Z,99081.66
2023-03-31T05:15:55.842Z,99085.53
2023-03-31T05:18:23.546Z,99076.19
2023-03-31T05:20:51.249Z,99066.31
2023-03-31T05:23:18.960Z,99067.03
2023-03-31T05:25:46.681Z,99069.50
2023-03-31T05:28:14.365Z,99067.53
2023-03-31T05:30:42.103Z,99058.13
2023-03-31T05:33:11.197Z,99042.66
2023-03-31T05:35:39.150Z,99037.22
2023-03-31T05:38:07.730Z,99038.63
2023-03-31T05:40:35.481Z,99034.19
2023-03-31T05:43:03.172Z,99021.66
2023-03-31T05:45:30.932Z,99021.94
2023-03-31T05:47:58.768Z,99006.06
2023-03-31T05:50:27.891Z,98987.97
2023-03-31T05:52:55.632Z,98992.97
2023-03-31T05:55:23.337Z,98987.28
2023-03-31T05:57:51.036Z,98983.78
2023-03-31T06:00:19.674Z,98973.38
2023-03-31T06:02:47.571Z,98978.38
2023-03-31T06:05:15.511Z,98975.44
2023-03-31T06:07:44.564Z,98972.38
2023-03-31T06:10:12.310Z,98968.50
2023-03-31T06:12:40.053Z,98970.00
2023-03-31T06:15:08.765Z,98962.34
2023-03-31T06:17:38.514Z,98967.75
2023-03-31T06:20:19.708Z,98962.56
2023-03-31T06:22:55.944Z,98944.25
2023-03-31T06:25:23.753Z,98928.94
2023-03-31T06:27:51.430Z,98939.22
2023-03-31T06:30:19.191Z,98935.72
2023-03-31T06:32:47.070Z,98929.41
2023-03-31T06:35:15.022Z,98915.50
2023-03-31T06:37:43.061Z,98921.03
2023-03-31T06:40:13.170Z,98909.84
2023-03-31T06:42:40.828Z,98911.66
2023-03-31T06:45:08.964Z,98915.53
2023-03-31T06:47:38.192Z,98904.06
2023-03-31T06:50:07.066Z,98908.47
2023-03-31T06:52:34.881Z,98911.31
2023-03-31T06:55:02.647Z,98902.00
2023-03-31T06:57:33.608Z,98897.78
2023-03-31T07:00:01.565Z,98892.69
2023-03-31T07:02:29.457Z,98900.75
2023-03-31T07:04:57.221Z,98887.19
2023-03-31T07:07:24.894Z,98884.38
2023-03-31T07:09:52.598Z,98885.97
2023-03-31T07:12:20.625Z,98882.63
2023-03-31T07:14:49.667Z,98880.56
2023-03-31T07:17:18.515Z,98871.13
2023-03-31T07:19:48.248Z,98871.34
2023-03-31T07:22:16.085Z,98863.09
2023-03-31T07:24:43.906Z,98864.91
2023-03-31T07:27:11.697Z,98867.53
2023-03-31T07:29:39.364Z,98863.00
2023-03-31T07:32:08.593Z,98854.72
2023-03-31T07:34:37.809Z,98862.00
2023-03-31T07:37:06.200Z,98860.03
2023-03-31T07:39:33.914Z,98855.25
2023-03-31T07:42:01.585Z,98855.47
2023-03-31T07:44:29.278Z,98844.13
2023-03-31T07:46:58.564Z,98842.09
2023-03-31T07:49:27.603Z,98835.50
2023-03-31T07:51:55.354Z,98825.38
2023-03-31T07:54:23.026Z,98834.75
2023-03-31T07:56:51.048Z,98831.03
2023-03-31T07:59:18.896Z,98833.06
2023-03-31T08:01:46.748Z,98832.16
2023-03-31T08:04:14.726Z,98838.19
2023-03-31T08:06:43.861Z,98838.00
2023-03-31T08:09:11.750Z,98826.75
2023-03-31T08:11:39.480Z,98838.66
2023-03-31T08:14:07.176Z,98837.47
2023-03-31T08:16:34.942Z,98832.53
2023-03-31T08:19:03.363Z,98820.47
2023-03-31T08:21:31.341Z,98821.09
2023-03-31T08:24:00.423Z,98820.91
2023-03-31T08:26:28.351Z,98808.44
2023-03-31T08:28:56.026Z,98815.38
2023-03-31T08:31:27.436Z,98799.16
2023-03-31T08:33:55.363Z,98805.84
2023-03-31T08:36:23.511Z,98809.47
2023-03-31T08:38:51.764Z,98809.59
2023-03-31T08:41:32.312Z,98811.28
2023-03-31T08:44:01.397Z,98799.63
2023-03-31T08:46:30.805Z,98798.31
2023-03-31T08:49:01.066Z,98774.34
2023-03-31T08:51:31.208Z,98786.19
2023-03-31T08:54:03.605Z,98799.38
2023-03-31T08:56:39.181Z,98787.66
2023-03-31T08:59:07.626Z,98777.97
2023-03-31T09:01:54.777Z,98786.25
2023-03-31T09:04:42.767Z,98790.03
2023-03-31T09:07:15.957Z,98783.69
2023-03-31T09:09:50.158Z,98779.38
2023-03-31T09:12:22.352Z,98760.91
2023-03-31T09:14:53.744Z,98755.09
2023-03-31T09:17:24.455Z,98756.41
2023-03-31T09:19:54.974Z,98763.91
2023-03-31T09:22:25.527Z,98768.97
2023-03-31T09:24:58.064Z,98765.59
2023-03-31T09:27:28.514Z,98759.88
2023-03-31T09:29:58.348Z,98766.19
2023-03-31T09:32:29.514Z,98752.88
2023-03-31T09:35:01.058Z,98762.03
2023-03-31T09:37:32.723Z,98766.34
2023-03-31T09:40:01.276Z,98763.22
2023-03-31T09:42:30.390Z,98761.25
2023-03-31T09:44:58.069Z,98759.19
2023-03-31T09:47:31.029Z,98768.91
2023-03-31T09:49:58.823Z,98762.63
2023-03-31T09:52:30.268Z,98765.22
2023-03-31T09:55:00.587Z,98756.94
2023-03-31T09:57:33.513Z,98757.31
2023-03-31T10:00:16.607Z,98753.22
2023-03-31T10:02:46.083Z,98745.25
2023-03-31T10:05:27.725Z,98738.06
2023-03-31T10:08:15.780Z,98747.69
2023-03-31T10:10:46.937Z,98751.06
2023-03-31T10:13:18.669Z,98734.72
2023-03-31T10:15:46.665Z,98744.91
2023-03-31T10:18:15.508Z,98738.91
2023-03-31T10:20:46.534Z,98734.59
2023-03-31T10:23:18.674Z,98740.13
2023-03-31T10:25:48.002Z,98739.38
2023-03-31T10:28:19.830Z,98728.78
2023-03-31T10:30:49.712Z,98733.28
2023-03-31T10:33:23.232Z,98724.50
2023-03-31T10:35:52.021Z,98711.75
2023-03-31T10:38:25.772Z,98732.50
2023-03-31T10:40:55.518Z,98720.53
2023-03-31T10:43:27.284Z,98716.22
2023-03-31T10:45:56.577Z,98724.50
2023-03-31T10:48:26.715Z,98716.22
2023-03-31T10:50:54.801Z,98712.03
2023-03-31T10:53:22.749Z,98707.16
2023-03-31T10:56:00.497Z,98708.00
2023-03-31T10:58:43.771Z,98701.50
2023-03-31T11:01:25.440Z,98703.47
2023-03-31T11:04:03.586Z,98707.94
2023-03-31T11:06:37.249Z,98710.47
2023-03-31T11:09:17.632Z,98705.84
2023-03-31T11:11:56.697Z,98709.56
2023-03-31T11:14:33.527Z,98708.69
2023-03-31T11:17:05.005Z,98696.34
2023-03-31T11:19:40.889Z,98687.84
2023-03-31T11:22:11.186Z,98683.25
2023-03-31T11:24:54.873Z,98689.75
2023-03-31T11:27:32.229Z,98681.69
2023-03-31T11:30:06.430Z,98679.22
2023-03-31T11:32:46.835Z,98686.09
2023-03-31T11:35:24.458Z,98684.31
2023-03-31T11:38:02.464Z,98678.03
2023-03-31T11:40:41.511Z,98688.16
2023-03-31T11:43:24.504Z,98686.34
2023-03-31T11:45:55.282Z,98688.59
2023-03-31T11:48:29.585Z,98697.47
2023-03-31T11:50:57.925Z,98688.81
2023-03-31T11:53:29.185Z,98686.84
2023-03-31T11:55:58.174Z,98678.59
2023-03-31T11:58:31.423Z,98677.84
2023-03-31T12:01:06.276Z,98667.69
2023-03-31T12:03:39.604Z,98670.19
2023-03-31T12:06:17.271Z,98662.84
2023-03-31T12:08:50.398Z,98658.50
2023-03-31T12:11:21.974Z,98652.53
2023-03-31T12:13:53.640Z,98643.91
2023-03-31T12:16:24.475Z,98647.19
2023-03-31T12:18:59.307Z,98654.63
2023-03-31T12:21:28.404Z,98648.47
2023-03-31T12:23:56.551Z,98635.13
2023-03-31T12:26:33.328Z,98628.13
2023-03-31T12:29:07.176Z,98640.22
2023-03-31T12:31:38.677Z,98646.66
2023-03-31T12:34:08.774Z,98630.97
2023-03-31T12:36:47.883Z,98628.63
2023-03-31T12:39:26.213Z,98633.28
2023-03-31T12:42:06.815Z,98600.97
2023-03-31T12:44:42.984Z,98620.09
2023-03-31T12:47:27.786Z,98631.38
2023-03-31T12:50:10.695Z,98633.25
2023-03-31T12:52:45.555Z,98629.75
2023-03-31T12:55:32.223Z,98635.13
2023-03-31T12:58:37.179Z,98629.25
2023-03-31T13:01:10.349Z,98606.25
2023-03-31T13:03:45.113Z,98594.03
2023-03-31T13:06:13.802Z,98593.69
2023-03-31T13:08:56.112Z,98602.31
2023-03-31T13:11:36.858Z,98591.63
2023-03-31T13:14:06.687Z,98596.78
2023-03-31T13:16:36.042Z,98600.88
2023-03-31T13:19:05.380Z,98609.78
2023-03-31T13:21:33.170Z,98587.97
2023-03-31T13:24:02.193Z,98589.50
2023-03-31T13:26:47.994Z,98580.03
2023-03-31T13:29:24.649Z,98582.56
2023-03-31T13:32:21.208Z,98571.97
2023-03-31T13:34:55.778Z,98572.28
2023-03-31T13:37:45.013Z,98564.38
2023-03-31T13:40:32.087Z,98579.13
2023-03-31T13:43:12.726Z,98560.00
2023-03-31T13:45:49.531Z,98576.09
2023-03-31T13:48:34.722Z,98587.00
2023-03-31T13:51:19.981Z,98578.44
2023-03-31T13:54:24.908Z,98571.97
2023-03-31T13:57:23.398Z,98571.66
2023-03-31T14:00:12.462Z,98560.06
2023-03-31T14:03:06.962Z,98578.56
2023-03-31T14:05:38.780Z,98568.28
2023-03-31T14:08:12.402Z,98562.28
2023-03-31T14:10:42.176Z,98558.00
2023-03-31T14:13:12.002Z,98552.75
2023-03-31T14:15:42.184Z,98559.56
2023-03-31T14:18:11.933Z,98547.88
2023-03-31T14:20:58.966Z,98548.94
2023-03-31T14:23:39.876Z,98557.38
2023-03-31T14:26:11.672Z,98548.28
2023-03-31T14:28:49.651Z,98554.22
2023-03-31T14:31:23.510Z,98541.59
2023-03-31T14:34:04.591Z,98540.16
2023-03-31T14:36:38.034Z,98543.94
2023-03-31T14:39:10.248Z,98535.47
2023-03-31T14:41:38.189Z,98532.88
2023-03-31T14:44:07.851Z,98538.75
2023-03-31T14:46:39.212Z,98534.66
2023-03-31T14:49:19.827Z,98544.69
2023-03-31T14:51:48.582Z,98535.06
2023-03-31T14:54:19.612Z,98528.53
2023-03-31T14:56:49.782Z,98528.19
2023-03-31T14:59:22.043Z,98520.75
2023-03-31T15:01:50.572Z,98515.97
2023-03-31T15:04:25.861Z,98515.78
2023-03-31T15:07:01.447Z,98517.25
2023-03-31T15:09:31.924Z,98507.59
2023-03-31T15:12:01.608Z,98511.22
2023-03-31T15:14:30.843Z,98515.97
2023-03-31T15:16:58.553Z,98502.34
2023-03-31T15:19:28.999Z,98504.84
2023-03-31T15:21:57.943Z,98500.19
2023-03-31T15:24:25.613Z,98495.19
2023-03-31T15:26:58.731Z,98507.28
2023-03-31T15:29:29.972Z,98509.88
2023-03-31T15:31:58.482Z,98516.44
2023-03-31T15:34:28.365Z,98511.19
2023-03-31T15:36:57.013Z,98495.63
2023-03-31T15:39:26.032Z,98501.59
2023-03-31T15:41:56.121Z,98497.69
2023-03-31T15:44:30.705Z,98490.31
2023-03-31T15:47:02.053Z,98501.88
2023-03-31T15:49:30.590Z,98505.41
2023-03-31T15:52:00.500Z,98507.56
2023-03-31T15:54:35.159Z,98503.94
2023-03-31T15:57:05.318Z,98508.31
2023-03-31T15:59:54.563Z,98511.00
2023-03-31T16:02:25.156Z,98515.09
2023-03-31T16:04:57.067Z,98500.50
2023-03-31T16:07:28.081Z,98499.50
2023-03-31T16:09:57.748Z,98487.69
2023-03-31T16:12:29.433Z,98486.50
2023-03-31T16:14:59.253Z,98474.91
2023-03-31T16:17:31.061Z,98490.56
2023-03-31T16:20:05.030Z,98492.41
2023-03-31T16:22:37.285Z,98496.81
2023-03-31T16:25:10.717Z,98489.63
2023-03-31T16:27:42.534Z,98495.94
2023-03-31T16:30:13.561Z,98486.97
2023-03-31T16:33:00.974Z,98496.19
2023-03-31T16:35:34.646Z,98488.53
2023-03-31T16:38:02.796Z,98480.47
2023-03-31T16:40:32.742Z,98481.47
2023-03-31T16:43:13.230Z,98477.72
2023-03-31T16:45:41.383Z,98475.16
2023-03-31T16:48:16.463Z,98477.19
2023-03-31T16:50:45.990Z,98479.84
2023-03-31T16:53:14.190Z,98492.00
2023-03-31T16:55:42.063Z,98482.28
2023-03-31T16:58:11.444Z,98482.28
2023-03-31T17:00:40.261Z,98479.63
2023-03-31T17:03:09.041Z,98482.09
2023-03-31T17:05:39.364Z,98485.56
2023-03-31T17:08:08.473Z,98493.50
2023-03-31T17:10:36.305Z,98483.69
2023-03-31T17:13:04.228Z,98485.50
2023-03-31T17:15:36.233Z,98493.09
2023-03-31T17:18:04.848Z,98490.78
2023-03-31T17:20:32.886Z,98489.78
2023-03-31T17:23:00.670Z,98489.97
2023-03-31T17:25:28.513Z,98489.47
2023-03-31T17:27:56.340Z,98484.06
2023-03-31T17:30:24.250Z,98477.44
2023-03-31T17:32:53.644Z,98491.19
2023-03-31T17:35:22.355Z,98493.69
2023-03-31T17:37:53.603Z,98482.09
2023-03-31T17:40:21.419Z,98486.25
2023-03-31T17:42:49.536Z,98489.91
2023-03-31T17:45:17.518Z,98482.22
2023-03-31T17:47:46.205Z,98482.88
2023-03-31T17:50:15.311Z,98492.50
2023-03-31T17:52:42.994Z,98490.34
2023-03-31T17:55:11.695Z,98498.13
2023-03-31T17:57:40.570Z,98492.84
2023-03-31T18:00:10.083Z,98488.19
2023-03-31T18:02:38.331Z,98482.88
2023-03-31T18:05:06.811Z,98488.50
2023-03-31T18:07:36.845Z,98482.03
2023-03-31T18:10:05.854Z,98493.06
2023-03-31T18:12:34.451Z,98495.31
2023-03-31T18:15:03.853Z,98499.13
2023-03-31T18:17:31.750Z,98499.13
2023-03-31T18:20:00.127Z,98496.47
2023-03-31T18:22:28.431Z,98495.63
2023-03-31T18:24:57.491Z,98495.41
2023-03-31T18:27:25.388Z,98492.94
2023-03-31T18:29:53.367Z,98495.13
2023-03-31T18:32:21.281Z,98494.47
2023-03-31T18:34:49.309Z,98490.25
2023-03-31T18:37:17.058Z,98486.44
2023-03-31T18:39:44.811Z,98498.88
2023-03-31T18:42:13.947Z,98501.25
2023-03-31T18:44:41.763Z,98501.19
2023-03-31T18:47:09.544Z,98501.69
2023-03-31T18:49:37.324Z,98497.56
2023-03-31T18:52:05.495Z,98499.72
2023-03-31T18:54:33.243Z,98511.69
2023-03-31T18:57:02.075Z,98501.38
2023-03-31T18:59:31.190Z,98500.47
2023-03-31T19:01:59.042Z,98503.97
2023-03-31T19:04:27.064Z,98498.34
2023-03-31T19:06:55.888Z,98505.63
2023-03-31T19:09:26.084Z,98495.44
2023-03-31T19:11:54.566Z,98508.63
2023-03-31T19:14:22.278Z,98503.00
2023-03-31T19:16:51.371Z,98510.28
2023-03-31T19:19:19.181Z,98512.13
2023-03-31T19:21:47.171Z,98502.25
2023-03-31T19:24:15.057Z,98501.28
2023-03-31T19:26:43.497Z,98507.44
2023-03-31T19:29:11.226Z,98499.81
2023-03-31T19:31:40.476Z,98500.13
2023-03-31T19:34:12.257Z,98502.28
2023-03-31T19:36:40.169Z,98504.41
2023-03-31T19:39:08.154Z,98505.94
2023-03-31T19:41:36.457Z,98506.91
2023-03-31T19:44:04.222Z,98498.78
2023-03-31T19:46:32.098Z,98495.06
2023-03-31T19:49:00.009Z,98493.22
2023-03-31T19:51:29.308Z,98502.94
2023-03-31T19:53:57.746Z,98500.63
2023-03-31T19:56:27.112Z,98499.25
2023-03-31T19:58:54.944Z,98492.28
2023-03-31T20:01:26.024Z,98495.91
2023-03-31T20:03:54.679Z,98496.16
2023-03-31T20:06:23.956Z,98488.13
2023-03-31T20:08:55.292Z,98491.84
2023-03-31T20:11:23.389Z,98490.50
2023-03-31T20:13:51.270Z,98486.16
2023-03-31T20:16:20.887Z,98482.72
2023-03-31T20:18:53.209Z,98491.84
2023-03-31T20:21:22.719Z,98492.56
2023-03-31T20:23:51.086Z,98496.81
2023-03-31T20:26:22.059Z,98486.34
2023-03-31T20:28:50.081Z,98480.59
2023-03-31T20:31:19.661Z,98481.47
2023-03-31T20:33:48.040Z,98481.78
2023-03-31T20:36:17.513Z,98477.53
2023-03-31T20:38:47.386Z,98485.22
2023-03-31T20:41:15.697Z,98483.53
2023-03-31T20:43:45.220Z,98477.94
2023-03-31T20:46:13.137Z,98485.00
2023-03-31T20:48:42.304Z,98485.13
2023-03-31T20:51:11.483Z,98477.91
2023-03-31T20:53:42.635Z,98475.88
2023-03-31T20:56:11.856Z,98478.88
2023-03-31T20:58:41.801Z,98473.59
2023-03-31T21:01:13.383Z,98473.19
2023-03-31T21:03:41.384Z,98478.56
2023-03-31T21:06:11.190Z,98480.66
2023-03-31T21:08:40.744Z,98483.66
2023-03-31T21:11:08.748Z,98481.81
2023-03-31T21:13:37.149Z,98490.81
2023-03-31T21:16:06.870Z,98475.53
2023-03-31T21:18:37.599Z,98476.00
2023-03-31T21:21:06.581Z,98483.97
2023-03-31T21:23:34.460Z,98482.53
2023-03-31T21:26:03.746Z,98476.84
2023-03-31T21:28:33.170Z,98484.09
2023-03-31T21:31:02.830Z,98482.69
2023-03-31T21:33:31.686Z,98485.09
2023-03-31T21:36:01.276Z,98486.44
2023-03-31T21:38:29.091Z,98478.50
2023-03-31T21:40:57.663Z,98483.13
2023-03-31T21:43:25.895Z,98483.47
2023-03-31T21:45:54.565Z,98483.53
2023-03-31T21:48:25.076Z,98483.81
2023-03-31T21:50:54.760Z,98486.66
2023-03-31T21:53:24.377Z,98477.50
2023-03-31T21:55:55.090Z,98478.22
2023-03-31T21:58:23.459Z,98483.97
2023-03-31T22:00:51.265Z,98492.63
2023-03-31T22:03:27.136Z,98484.03
2023-03-31T22:05:55.716Z,98488.31
2023-03-31T22:08:25.412Z,98482.63
2023-03-31T22:10:53.715Z,98491.41
2023-03-31T22:13:22.380Z,98483.81
2023-03-31T22:15:50.243Z,98481.69
2023-03-31T22:18:18.230Z,98489.06
2023-03-31T22:20:46.763Z,98483.78
2023-03-31T22:23:15.049Z,98475.28
2023-03-31T22:25:44.192Z,98485.13
2023-03-31T22:28:12.583Z,98479.78
2023-03-31T22:30:40.408Z,98485.97
2023-03-31T22:33:08.272Z,98472.16
2023-03-31T22:35:36.366Z,98481.66
2023-03-31T22:38:05.687Z,98487.81
2023-03-31T22:40:35.629Z,98481.69
2023-03-31T22:44:00.040Z,98479.84
2023-03-31T22:46:28.003Z,98479.94
2023-03-31T22:48:55.819Z,98479.47
2023-03-31T22:51:23.622Z,98486.75
2023-03-31T22:53:52.136Z,98478.13
2023-03-31T22:56:20.374Z,98490.66
2023-03-31T22:58:48.148Z,98482.25
2023-03-31T23:01:19.104Z,98486.13
2023-03-31T23:03:47.646Z,98483.03
2023-03-31T23:06:16.406Z,98479.59
2023-03-31T23:08:45.328Z,98485.31
2023-03-31T23:11:14.144Z,98479.03
2023-03-31T23:13:42.454Z,98486.50
2023-03-31T23:16:11.666Z,98493.69
2023-03-31T23:18:44.225Z,98483.03
2023-03-31T23:21:12.047Z,98484.78
2023-03-31T23:23:39.784Z,98476.34
2023-03-31T23:26:07.973Z,98480.97
2023-03-31T23:28:38.002Z,98491.13
2023-03-31T23:31:06.198Z,98475.88
2023-03-31T23:33:34.041Z,98477.47
2023-03-31T23:36:04.954Z,98486.16
2023-03-31T23:38:33.190Z,98484.47
2023-03-31T23:41:01.680Z,98483.13
2023-03-31T23:43:30.255Z,98479.44
2023-03-31T23:45:58.072Z,98476.44
2023-03-31T23:48:26.482Z,98466.06
2023-03-31T23:50:54.200Z,98470.41
2023-03-31T23:53:23.290Z,98463.56
2023-03-31T23:55:54.929Z,98466.66
2023-03-31T23:58:22.677Z,98466.25
